Time;durP1;ratioP1;P1;durP2;ratioP2;P2;SDS_P1;SDS_P2;PMS_P1;PMS_P2;Temp;Humidity;BMP_temperature;BMP_pressure;BME280_temperature;BME280_humidity;BME280_pressure;Samples;Min_cycle;Max_cycle;Signal;HPM_P1;HPM_P2
2022/05/25 00:00:10;;;;;;;9.65;5.53;;;;;;;15.23;100.00;96846.16;4986560;28;20056;-62
2022/05/25 00:02:38;;;;;;;6.05;5.65;;;;;;;15.42;100.00;96864.44;4986655;28;20050;-61
2022/05/25 00:05:08;;;;;;;7.18;5.57;;;;;;;14.63;100.00;96729.25;4986207;28;20209;-62
2022/05/25 00:07:35;;;;;;;11.02;5.93;;;;;;;15.53;100.00;96860.41;4968218;28;20058;-59
2022/05/25 00:10:03;;;;;;;8.85;6.00;;;;;;;15.51;100.00;96856.41;4966919;28;20058;-60
2022/05/25 00:12:29;;;;;;;6.07;4.97;;;;;;;15.49;100.00;96865.19;4966063;28;20062;-60
2022/05/25 00:15:03;;;;;;;6.50;5.35;;;;;;;15.18;100.00;96799.13;4966852;28;20064;-61
2022/05/25 00:17:30;;;;;;;6.00;5.40;;;;;;;15.61;100.00;96861.94;4967155;28;20054;-60
2022/05/25 00:19:59;;;;;;;6.97;5.90;;;;;;;15.60;100.00;96877.09;4966786;28;20050;-61
2022/05/25 00:22:44;;;;;;;6.45;5.50;;;;;;;15.77;100.00;96878.22;4967025;28;20055;-60
2022/05/25 00:25:15;;;;;;;8.57;5.85;;;;;;;15.53;100.00;96826.09;4965360;28;20537;-60
2022/05/25 00:27:42;;;;;;;7.07;6.20;;;;;;;15.82;100.00;96856.22;4966801;28;20062;-60
2022/05/25 00:30:09;;;;;;;7.78;6.10;;;;;;;15.75;100.00;96861.88;4966914;28;20467;-61
2022/05/25 00:32:36;;;;;;;6.38;5.78;;;;;;;15.43;100.00;96799.81;4965275;28;20061;-60
2022/05/25 00:35:05;;;;;;;5.75;5.25;;;;;;;15.64;100.00;96813.66;4980794;28;20050;-60
2022/05/25 00:37:32;;;;;;;8.13;6.43;;;;;;;15.76;100.00;96846.69;4965021;28;20050;-61
2022/05/25 00:39:59;;;;;;;8.50;6.20;;;;;;;16.00;100.00;96865.28;4980838;28;20070;-58
2022/05/25 00:42:26;;;;;;;11.00;6.70;;;;;;;16.03;100.00;96867.25;4966408;28;20058;-58
2022/05/25 00:44:53;;;;;;;8.77;6.50;;;;;;;16.13;100.00;96866.41;4966675;28;20073;-59
2022/05/25 00:47:25;;;;;;;8.07;5.70;;;;;;;15.98;100.00;96825.78;4965200;28;20069;-61
2022/05/25 00:49:52;;;;;;;7.65;6.72;;;;;;;16.05;100.00;96830.53;4966317;28;20054;-59
2022/05/25 00:52:19;;;;;;;6.88;6.18;;;;;;;16.01;100.00;96819.38;4966042;28;20125;-61
2022/05/25 00:54:49;;;;;;;7.30;5.82;;;;;;;16.38;100.00;96878.16;4980709;28;20054;-59
2022/05/25 00:57:25;;;;;;;8.00;5.85;;;;;;;16.39;100.00;96879.75;4964369;28;20062;-61
2022/05/25 01:00:04;;;;;;;6.78;6.18;;;;;;;16.28;100.00;96890.22;4965975;28;20473;-59
2022/05/25 01:02:35;;;;;;;6.72;6.05;;;;;;;16.18;100.00;96882.72;4965770;28;20067;-60
2022/05/25 01:05:03;;;;;;;7.03;5.88;;;;;;;16.14;100.00;96884.75;4963978;28;20054;-60
2022/05/25 01:07:32;;;;;;;8.02;5.95;;;;;;;16.14;100.00;96889.53;4981491;28;20057;-59
2022/05/25 01:10:32;;;;;;;7.10;6.10;;;;;;;16.05;100.00;96892.78;4984786;28;20481;-60
2022/05/25 01:13:31;;;;;;;9.25;6.25;;;;;;;15.94;100.00;96897.66;4985343;28;20057;-59
2022/05/25 01:16:20;;;;;;;14.57;7.78;;;;;;;15.66;100.00;96872.69;4982938;28;20050;-59
2022/05/25 01:19:05;;;;;;;9.05;6.82;;;;;;;15.42;100.00;96876.41;4984952;28;20073;-60
2022/05/25 01:21:44;;;;;;;7.53;6.65;;;;;;;15.31;100.00;96832.97;4983549;28;20576;-59
2022/05/25 01:24:19;;;;;;;8.77;7.80;;;;;;;15.73;100.00;96899.78;4985051;28;20054;-61
2022/05/25 01:27:04;;;;;;;8.85;7.95;;;;;;;15.86;100.00;96907.28;4984946;28;20058;-59
2022/05/25 01:29:40;;;;;;;9.50;7.35;;;;;;;15.28;100.00;96811.44;4985285;28;20599;-59
2022/05/25 01:32:45;;;;;;;13.95;8.73;;;;;;;15.89;100.00;96917.63;4984758;28;20058;-61
2022/05/25 01:35:29;;;;;;;11.65;8.23;;;;;;;15.78;100.00;96911.31;4989320;28;20472;-61
2022/05/25 01:38:46;;;;;;;13.13;8.18;;;;;;;15.41;100.00;96918.69;4984711;28;20050;-59
2022/05/25 01:41:44;;;;;;;9.32;8.15;;;;;;;15.57;100.00;96925.38;4984245;28;20050;-59
2022/05/25 01:44:17;;;;;;;8.60;7.70;;;;;;;15.33;100.00;96881.59;4983455;28;20061;-59
2022/05/25 01:46:48;;;;;;;14.15;8.35;;;;;;;15.51;100.00;96935.38;4984881;28;20050;-60
2022/05/25 01:49:21;;;;;;;17.23;8.90;;;;;;;15.38;100.00;96941.78;4984538;28;20061;-59
2022/05/25 01:52:03;;;;;;;11.93;8.15;;;;;;;15.56;100.00;96932.16;4984679;28;20062;-61
2022/05/25 01:54:34;;;;;;;20.70;8.57;;;;;;;15.28;100.00;96887.59;4984829;28;20496;-61
2022/05/25 01:57:05;;;;;;;22.20;9.05;;;;;;;15.10;100.00;96853.38;4985015;28;20054;-60
2022/05/25 01:59:32;;;;;;;20.60;9.88;;;;;;;15.09;100.00;96840.63;4984934;28;20120;-60
2022/05/25 02:04:51;;;;;;;35.38;10.98;;;;;;;15.89;100.00;96934.41;4984578;28;20420;-60
2022/05/25 02:07:51;;;;;;;37.42;12.30;;;;;;;15.94;100.00;96942.34;4984426;28;20050;-63
2022/05/25 02:10:55;;;;;;;37.00;14.70;;;;;;;16.00;100.00;96943.50;4984042;28;20065;-60
2022/05/25 02:13:51;;;;;;;43.40;14.17;;;;;;;16.11;100.00;96947.03;4984646;28;20058;-60
2022/05/25 02:16:23;;;;;;;47.42;14.57;;;;;;;16.18;100.00;96940.63;4991623;28;20065;-61
2022/05/25 02:19:05;;;;;;;37.13;13.50;;;;;;;16.15;100.00;96947.84;4984632;28;20050;-60
2022/05/25 02:21:50;;;;;;;54.53;15.13;;;;;;;16.18;100.00;96938.63;4984156;28;20137;-60
2022/05/25 02:24:28;;;;;;;49.78;15.50;;;;;;;15.84;100.00;96909.69;4984455;28;20475;-62
2022/05/25 02:27:07;;;;;;;50.60;14.35;;;;;;;15.92;100.00;96893.66;5000965;28;20050;-61
2022/05/25 02:29:44;;;;;;;46.20;14.18;;;;;;;16.40;100.00;96950.44;4988743;28;20516;-60
2022/05/25 02:32:28;;;;;;;44.33;13.23;;;;;;;16.47;100.00;96954.00;5002909;28;20058;-60
2022/05/25 02:34:57;;;;;;;31.35;12.02;;;;;;;16.37;100.00;96954.06;4988081;28;20065;-60
2022/05/25 02:37:26;;;;;;;22.05;10.65;;;;;;;16.34;100.00;96952.88;4988317;28;20444;-61
2022/05/25 02:39:54;;;;;;;32.55;11.95;;;;;;;16.36;100.00;96953.25;4987777;28;20092;-62
2022/05/25 02:42:21;;;;;;;34.13;14.38;;;;;;;16.24;100.00;96934.19;4987225;28;20045;-60
2022/05/25 02:44:49;;;;;;;32.92;14.57;;;;;;;16.41;100.00;96966.81;4988221;28;20433;-60
2022/05/25 02:47:15;;;;;;;39.75;16.10;;;;;;;16.16;100.00;96929.03;4987989;28;20493;-61
2022/05/25 02:49:42;;;;;;;40.03;17.90;;;;;;;16.36;100.00;96958.84;5002784;28;20588;-61
2022/05/25 02:52:10;;;;;;;51.10;20.17;;;;;;;16.40;100.00;96965.22;4987771;28;20053;-63
2022/05/25 02:54:38;;;;;;;38.55;19.55;;;;;;;16.37;100.00;96966.06;4987907;28;20057;-60
2022/05/25 02:57:06;;;;;;;45.95;20.30;;;;;;;16.31;100.00;96970.47;5002461;28;20050;-60
2022/05/25 02:59:34;;;;;;;44.85;21.38;;;;;;;16.17;100.00;96945.41;4986339;28;20054;-60
2022/05/25 03:02:02;;;;;;;48.75;20.65;;;;;;;16.17;100.00;96925.84;4987411;28;20065;-60
2022/05/25 03:04:29;;;;;;;45.22;19.33;;;;;;;16.45;100.00;96964.81;4987671;28;20502;-63
2022/05/25 03:06:56;;;;;;;58.13;20.05;;;;;;;16.43;100.00;96969.19;4977258;28;20058;-61
2022/05/25 03:09:23;;;;;;;54.67;17.90;;;;;;;16.42;100.00;96957.19;4968647;28;20465;-61
2022/05/25 03:11:50;;;;;;;46.47;15.63;;;;;;;16.66;100.00;96977.06;4967884;28;20058;-61
2022/05/25 03:14:17;;;;;;;48.50;16.55;;;;;;;16.63;100.00;96973.06;4968058;28;20934;-60
2022/05/25 03:16:44;;;;;;;42.30;16.77;;;;;;;16.72;100.00;96970.63;4967829;28;20059;-61
2022/05/25 03:19:10;;;;;;;44.70;16.10;;;;;;;16.64;100.00;96961.47;4968358;28;20055;-60
2022/05/25 03:21:37;;;;;;;41.50;15.75;;;;;;;16.86;100.00;96986.47;4968113;28;20054;-60
2022/05/25 03:24:04;;;;;;;39.17;15.60;;;;;;;16.90;100.00;96981.66;4967973;28;20066;-61
2022/05/25 03:26:31;;;;;;;46.63;15.30;;;;;;;16.48;100.00;96933.25;4967814;28;20408;-60
2022/05/25 03:28:58;;;;;;;53.70;16.35;;;;;;;16.32;100.00;96913.38;4967664;28;20054;-61
2022/05/25 03:31:25;;;;;;;48.90;17.95;;;;;;;16.89;100.00;96999.63;4967898;28;20062;-60
2022/05/25 03:33:52;;;;;;;48.83;16.77;;;;;;;16.28;100.00;96909.00;4967593;28;20053;-60
2022/05/25 03:36:19;;;;;;;44.53;15.40;;;;;;;16.98;100.00;96999.94;4967789;28;20065;-60
2022/05/25 03:38:46;;;;;;;38.00;15.93;;;;;;;16.95;100.00;97051.16;4966810;28;20055;-60
2022/05/25 03:41:15;;;;;;;46.33;15.85;;;;;;;16.92;100.00;97004.41;4966775;28;20058;-60
2022/05/25 03:43:41;;;;;;;47.38;16.08;;;;;;;16.70;100.00;97016.97;4966202;28;20059;-60
2022/05/25 03:46:08;;;;;;;45.15;15.65;;;;;;;16.80;100.00;97004.91;4967409;28;20469;-60
2022/05/25 03:48:35;;;;;;;48.92;17.48;;;;;;;15.05;100.00;96717.91;4967497;28;20047;-61
2022/05/25 03:51:02;;;;;;;50.95;18.02;;;;;;;16.63;100.00;96973.88;4967521;28;20050;-61
2022/05/25 03:53:29;;;;;;;52.67;17.48;;;;;;;16.44;100.00;96932.47;4981945;28;20066;-61
2022/05/25 03:55:55;;;;;;;42.75;17.85;;;;;;;16.97;100.00;97015.16;4967458;28;20055;-63
2022/05/25 03:58:22;;;;;;;49.45;17.70;;;;;;;16.92;100.00;97013.59;4965848;28;20580;-60
2022/05/25 04:00:49;;;;;;;59.92;19.20;;;;;;;16.75;100.00;96968.97;4965873;28;20051;-60
2022/05/25 04:03:20;;;;;;;56.33;18.83;;;;;;;17.08;100.00;97027.06;4967226;28;20572;-62
2022/05/25 04:05:47;;;;;;;58.85;18.67;;;;;;;16.82;100.00;96980.13;4967543;28;20054;-60
2022/05/25 04:08:14;;;;;;;54.42;19.92;;;;;;;16.61;100.00;96953.91;4986342;28;20112;-63
2022/05/25 04:10:41;;;;;;;53.13;19.98;;;;;;;17.19;100.00;97033.34;4985925;28;20066;-62
2022/05/25 04:13:07;;;;;;;48.53;19.80;;;;;;;16.76;100.00;96942.59;5001045;28;20046;-59
2022/05/25 04:15:35;;;;;;;42.47;18.55;;;;;;;17.36;100.00;97012.78;4986247;28;20426;-60
2022/05/25 04:18:02;;;;;;;46.20;19.52;;;;;;;17.36;100.00;97026.78;4985314;28;20050;-60
2022/05/25 04:20:31;;;;;;;47.28;20.42;;;;;;;17.14;100.00;96969.41;4986027;28;20062;-60
2022/05/25 04:22:58;;;;;;;45.53;18.17;;;;;;;17.14;100.00;96963.81;4985816;28;20421;-60
2022/05/25 04:25:25;;;;;;;40.78;18.17;;;;;;;17.21;100.00;96972.97;4985909;28;20600;-63
2022/05/25 04:27:54;;;;;;;53.33;19.98;;;;;;;17.63;100.00;97027.75;4986140;28;20058;-61
2022/05/25 04:30:25;;;;;;;44.72;19.20;;;;;;;17.13;100.00;96951.03;4985792;28;20073;-61
2022/05/25 04:32:52;;;;;;;43.40;19.52;;;;;;;17.63;100.00;97020.16;4986039;28;20421;-60
2022/05/25 04:35:20;;;;;;;38.70;18.88;;;;;;;17.71;100.00;97012.44;4985990;28;20069;-60
2022/05/25 04:37:52;;;;;;;35.90;17.73;;;;;;;17.50;100.00;96953.84;4985687;28;20101;-61
2022/05/25 04:40:28;;;;;;;39.85;20.45;;;;;;;17.84;100.00;97013.50;4984057;28;20103;-63
2022/05/25 04:42:56;;;;;;;45.95;20.42;;;;;;;17.24;100.00;97022.53;4986150;28;20062;-60
2022/05/25 04:45:26;;;;;;;45.30;21.15;;;;;;;17.19;100.00;97033.34;4985780;28;20050;-60
2022/05/25 04:47:54;;;;;;;49.05;20.13;;;;;;;16.44;100.00;96948.41;4985691;28;20484;-61
2022/05/25 04:50:23;;;;;;;43.78;21.23;;;;;;;16.96;100.00;97024.78;4999342;28;20058;-60
2022/05/25 04:52:50;;;;;;;45.38;22.42;;;;;;;17.21;100.00;97019.75;4985585;28;20064;-60
2022/05/25 04:58:03;;;;;;;44.60;21.15;;;;;;;17.45;100.00;97035.56;4980299;28;20050;-60
2022/05/25 05:00:30;;;;;;;38.33;21.13;;;;;;;17.37;100.00;97017.19;4985467;28;20557;-60
2022/05/25 05:02:56;;;;;;;45.50;21.40;;;;;;;17.50;100.00;97043.47;4985363;28;20050;-61
2022/05/25 05:05:23;;;;;;;39.90;18.55;;;;;;;16.84;100.00;96949.72;4984957;28;20050;-60
2022/05/25 05:07:50;;;;;;;43.05;21.40;;;;;;;17.28;100.00;96986.88;4985014;28;20062;-59
2022/05/25 05:10:17;;;;;;;42.47;20.13;;;;;;;17.66;100.00;97024.09;4984625;28;20058;-63
2022/05/25 05:12:43;;;;;;;41.88;20.35;;;;;;;16.99;100.00;96900.81;4985132;28;20046;-60
2022/05/25 05:15:11;;;;;;;44.63;20.77;;;;;;;17.47;100.00;96985.50;4959118;28;20058;-63
2022/05/25 05:17:37;;;;;;;42.10;20.00;;;;;;;17.60;100.00;97048.19;4985058;28;20058;-61
2022/05/25 05:20:05;;;;;;;47.97;20.83;;;;;;;17.16;100.00;97045.38;4970965;28;20522;-60
2022/05/25 05:22:31;;;;;;;46.97;21.58;;;;;;;16.73;100.00;97055.31;4964190;28;20053;-63
2022/05/25 05:24:58;;;;;;;52.28;24.05;;;;;;;16.86;100.00;97045.22;4965551;28;20051;-61
2022/05/25 05:27:25;;;;;;;56.15;24.38;;;;;;;16.58;100.00;97061.00;4965589;28;20054;-60
2022/05/25 05:29:52;;;;;;;50.30;23.40;;;;;;;16.25;100.00;97025.22;4965036;28;20440;-60
2022/05/25 05:32:19;;;;;;;48.33;24.60;;;;;;;16.56;100.00;97023.47;4980201;28;20050;-61
2022/05/25 05:34:46;;;;;;;49.67;25.40;;;;;;;17.01;100.00;97057.91;4964872;28;20062;-60
2022/05/25 05:37:23;;;;;;;51.20;23.50;;;;;;;17.16;100.00;97064.97;4963620;28;20055;-61
2022/05/25 05:39:54;;;;;;;46.53;22.23;;;;;;;17.11;100.00;97071.00;4965033;28;20066;-60
2022/05/25 05:42:23;;;;;;;46.65;24.13;;;;;;;16.85;100.00;97071.63;4980108;28;20504;-60
2022/05/25 05:45:11;;;;;;;50.28;24.58;;;;;;;17.13;100.00;97077.00;4979803;28;20501;-60
2022/05/25 05:47:45;;;;;;;44.63;24.75;;;;;;;17.47;100.00;97083.53;4964110;28;20054;-60
2022/05/25 05:50:12;;;;;;;48.50;25.23;;;;;;;17.51;100.00;97087.91;4964961;28;20054;-60
2022/05/25 05:52:39;;;;;;;39.65;22.95;;;;;;;17.71;100.00;97082.50;4965079;28;20234;-64
2022/05/25 05:55:06;;;;;;;38.67;21.17;;;;;;;17.98;100.00;97086.22;4964786;28;20089;-60
2022/05/25 05:57:35;;;;;;;39.03;20.02;;;;;;;18.13;100.00;97076.41;4965058;28;20074;-60
2022/05/25 06:00:04;;;;;;;37.72;21.52;;;;;;;18.26;100.00;97045.84;4958149;28;20051;-61
2022/05/25 06:02:31;;;;;;;34.28;20.73;;;;;;;18.27;100.00;97033.38;4964121;28;20058;-59
2022/05/25 06:04:57;;;;;;;41.60;21.42;;;;;;;18.76;99.72;97075.59;4959601;28;20514;-65
2022/05/25 06:07:25;;;;;;;33.75;19.50;;;;;;;18.79;97.81;97074.78;4953923;28;20051;-60
2022/05/25 06:09:51;;;;;;;34.33;19.50;;;;;;;18.83;96.63;97078.31;4959523;28;20074;-64
2022/05/25 06:12:20;;;;;;;34.75;20.33;;;;;;;18.76;97.26;97064.38;4952592;28;20067;-61
2022/05/25 06:14:46;;;;;;;36.55;19.63;;;;;;;18.86;97.82;97083.06;4951325;28;20057;-63
2022/05/25 06:19:59;;;;;;;31.55;18.77;;;;;;;19.00;97.59;97082.84;4948230;28;20085;-60
2022/05/25 06:22:32;;;;;;;35.75;19.33;;;;;;;18.71;96.40;97039.59;4952123;28;20059;-61
2022/05/25 06:25:00;;;;;;;27.17;17.70;;;;;;;18.85;94.18;97011.31;4948150;28;20130;-61
2022/05/25 06:27:27;;;;;;;26.20;17.63;;;;;;;19.42;93.54;97093.44;4977644;28;20490;-62
2022/05/25 06:29:54;;;;;;;26.42;18.02;;;;;;;19.71;93.32;97095.75;4964988;28;20074;-60
2022/05/25 06:32:23;;;;;;;28.83;17.63;;;;;;;19.76;90.11;97086.84;4956073;28;20991;-62
2022/05/25 06:34:50;;;;;;;26.67;16.88;;;;;;;19.90;89.87;97092.19;4946106;28;20047;-62
2022/05/25 06:37:25;;;;;;;27.58;17.60;;;;;;;19.90;88.99;97089.38;4968643;28;20055;-60
2022/05/25 06:39:51;;;;;;;25.45;16.83;;;;;;;20.25;87.93;97086.69;4944638;28;20056;-59
2022/05/25 06:42:20;;;;;;;23.65;16.27;;;;;;;20.08;87.07;97099.06;4945280;28;20047;-61
2022/05/25 06:44:46;;;;;;;31.38;17.73;;;;;;;18.11;93.20;96955.50;4956567;28;20055;-63
2022/05/25 06:47:16;;;;;;;22.50;16.00;;;;;;;18.64;97.78;97101.44;4973976;28;20055;-60
2022/05/25 06:49:44;;;;;;;29.20;18.50;;;;;;;18.83;97.53;97080.31;4981765;28;20117;-61
2022/05/25 06:52:13;;;;;;;31.83;19.88;;;;;;;19.24;94.80;97095.72;4982680;28;20054;-61
2022/05/25 06:54:40;;;;;;;30.13;19.30;;;;;;;19.30;94.82;97098.88;4982885;28;20058;-62
2022/05/25 06:57:07;;;;;;;32.88;19.42;;;;;;;19.65;92.08;97097.50;4982105;28;20054;-61
2022/05/25 06:59:34;;;;;;;26.98;18.95;;;;;;;19.83;89.82;97058.59;4982253;28;20426;-62
2022/05/25 07:02:01;;;;;;;30.40;19.48;;;;;;;19.24;92.49;97101.34;4982702;28;20066;-59
2022/05/25 07:04:27;;;;;;;31.63;20.13;;;;;;;18.11;97.78;97039.59;4982608;28;20157;-63
2022/05/25 07:07:02;;;;;;;37.13;21.52;;;;;;;19.26;96.78;97110.13;4982495;28;20501;-61
2022/05/25 07:09:30;;;;;;;33.88;20.08;;;;;;;19.15;92.43;97014.03;4983085;28;20492;-60
2022/05/25 07:11:58;;;;;;;34.70;19.70;;;;;;;19.51;93.28;97121.00;4982200;28;20058;-62
2022/05/25 07:16:19;;;;;;;38.45;20.65;;;;;;;18.62;98.42;97114.31;5088707;27;1285394;-57
2022/05/25 07:18:47;;;;;;;37.70;21.50;;;;;;;18.25;100.00;97089.91;5121325;27;20075;-60
2022/05/25 07:21:28;;;;;;;38.90;21.77;;;;;;;19.13;97.60;97111.94;5120753;27;20043;-64
2022/05/25 07:23:58;;;;;;;32.65;19.90;;;;;;;19.48;93.90;97094.56;5117664;28;20429;-62
2022/05/25 07:26:28;;;;;;;29.42;18.73;;;;;;;19.28;90.89;97029.06;5120098;27;20051;-59
2022/05/25 07:28:55;;;;;;;34.00;20.65;;;;;;;19.92;89.12;97089.72;5119994;27;20544;-62
2022/05/25 07:31:26;;;;;;;30.15;18.30;;;;;;;18.21;86.45;96805.91;5120054;27;20051;-62
2022/05/25 07:34:10;;;;;;;30.25;19.67;;;;;;;20.50;84.46;97080.56;5119636;27;20120;-64
2022/05/25 07:36:40;;;;;;;32.90;19.40;;;;;;;19.35;81.62;96826.69;5118842;28;20051;-60
2022/05/25 07:39:13;;;;;;;34.22;19.95;;;;;;;20.87;80.46;97043.53;5119946;27;20044;-60
2022/05/25 07:41:44;;;;;;;31.17;19.48;;;;;;;21.57;78.52;97117.94;5114577;27;20603;-63
2022/05/25 07:44:15;;;;;;;30.08;19.05;;;;;;;20.93;80.23;97053.84;5019426;28;20431;-61
2022/05/25 07:46:42;;;;;;;29.38;17.80;;;;;;;20.62;81.98;97122.13;5019707;28;20532;-60
2022/05/25 07:49:09;;;;;;;33.33;21.27;;;;;;;19.86;84.16;96995.88;5016180;28;20061;-63
2022/05/25 07:51:36;;;;;;;31.63;20.08;;;;;;;21.10;82.62;97125.13;5019989;28;20046;-61
2022/05/25 07:54:03;;;;;;;34.30;20.73;;;;;;;20.90;80.96;97105.41;5020163;28;20054;-60
2022/05/25 07:56:34;;;;;;;34.70;20.98;;;;;;;19.76;84.77;97041.88;5018135;28;20105;-61
2022/05/25 07:59:03;;;;;;;36.67;21.95;;;;;;;20.44;85.03;97122.47;5013998;28;20045;-61
2022/05/25 08:07:08;;;;;;;41.70;23.38;;;;;;;20.42;86.14;97141.81;5017019;28;20049;-60
2022/05/25 08:09:35;;;;;;;33.63;19.42;;;;;;;20.31;85.06;97107.47;5000769;28;20134;-58
2022/05/25 08:12:05;;;;;;;34.40;21.02;;;;;;;20.61;85.36;97148.69;5008516;28;20061;-60
2022/05/25 08:14:32;;;;;;;33.55;20.63;;;;;;;20.97;82.67;97152.38;5018804;28;20053;-61
2022/05/25 08:16:59;;;;;;;34.85;22.35;;;;;;;21.11;82.00;97149.22;5018801;28;20448;-63
2022/05/25 08:19:26;;;;;;;35.03;22.05;;;;;;;21.20;81.34;97143.78;5018823;28;20446;-60
2022/05/25 08:21:53;;;;;;;33.63;21.42;;;;;;;21.36;80.08;97155.09;5019206;28;20054;-59
2022/05/25 08:24:20;;;;;;;31.38;20.15;;;;;;;21.41;79.15;97157.38;5015855;28;20057;-60
2022/05/25 08:26:46;;;;;;;30.60;20.35;;;;;;;21.20;78.31;97107.16;5009904;28;20042;-60
2022/05/25 08:29:13;;;;;;;33.95;20.55;;;;;;;21.70;77.72;97163.94;5000690;28;20157;-62
2022/05/25 08:31:41;;;;;;;33.63;21.42;;;;;;;21.84;77.61;97157.97;4985327;28;20100;-58
2022/05/25 08:34:07;;;;;;;38.03;21.35;;;;;;;22.04;75.85;97161.47;4990668;28;20046;-63
2022/05/25 08:36:34;;;;;;;34.47;21.83;;;;;;;22.16;75.56;97157.13;5002012;28;20061;-60
2022/05/25 08:39:02;;;;;;;34.97;21.77;;;;;;;22.23;74.68;97151.28;4997768;28;20130;-63
2022/05/25 08:41:34;;;;;;;36.17;22.17;;;;;;;22.39;73.17;97154.88;4986778;28;20595;-60
2022/05/25 08:44:03;;;;;;;35.53;24.00;;;;;;;22.28;74.04;97159.22;4999045;28;20054;-61
2022/05/25 08:46:32;;;;;;;40.80;22.85;;;;;;;21.93;75.20;97166.59;5005389;28;20070;-60
2022/05/25 08:49:02;;;;;;;38.00;24.30;;;;;;;22.17;76.17;97156.69;5004661;28;20052;-62
2022/05/25 08:51:51;;;;;;;36.83;22.33;;;;;;;22.36;74.39;97169.88;5005022;28;20050;-61
2022/05/25 08:54:19;;;;;;;;;;;;;;;22.85;73.10;97164.09;5003090;28;20050;-62
2022/05/25 08:56:49;;;;;;;34.88;22.48;;;;;;;23.07;70.66;97170.69;5004988;28;19925;-61
2022/05/25 08:59:25;;;;;;;35.75;23.02;;;;;;;23.05;71.23;97170.34;5003355;28;20058;-62
2022/05/25 09:02:00;;;;;;;39.40;24.63;;;;;;;23.13;71.29;97168.88;4992370;28;20049;-62
2022/05/25 09:04:42;;;;;;;38.05;24.65;;;;;;;23.30;69.93;97167.59;4994848;28;20363;-63
2022/05/25 09:07:24;;;;;;;36.60;23.92;;;;;;;23.53;69.30;97170.09;4985215;28;20109;-63
2022/05/25 09:09:51;;;;;;;37.95;24.95;;;;;;;23.52;69.27;97180.59;4985569;28;20065;-62
2022/05/25 09:12:34;;;;;;;42.65;26.65;;;;;;;23.67;68.21;97159.13;4985409;28;20061;-58
2022/05/25 09:15:13;;;;;;;38.10;24.27;;;;;;;24.03;66.57;97191.94;4985465;28;20086;-62
2022/05/25 09:17:46;;;;;;;36.75;23.70;;;;;;;23.76;66.71;97184.66;4984345;28;20065;-59
2022/05/25 09:20:16;;;;;;;40.23;25.80;;;;;;;23.78;67.68;97187.03;4984255;28;20054;-62
2022/05/25 09:22:49;;;;;;;44.05;26.25;;;;;;;24.09;66.93;97179.56;4985452;28;20091;-58
2022/05/25 09:25:17;;;;;;;40.67;25.80;;;;;;;23.94;66.31;97172.78;4985413;28;20432;-59
2022/05/25 09:27:57;;;;;;;43.00;26.83;;;;;;;24.52;64.66;97165.50;4985602;28;20054;-59
2022/05/25 09:30:26;;;;;;;43.92;25.90;;;;;;;24.87;63.42;97144.38;4985394;28;20216;-63
2022/05/25 09:32:59;;;;;;;37.83;25.35;;;;;;;24.95;61.84;97114.53;4990745;28;20045;-60
2022/05/25 09:35:28;;;;;;;;;;;;;;;25.55;60.61;97163.22;5004987;28;20061;-59
2022/05/25 09:38:20;;;;;;;41.33;26.02;;;;;;;25.58;59.48;97167.16;5004295;28;19925;-62
2022/05/25 09:40:51;;;;;;;36.53;25.05;;;;;;;25.74;59.30;97166.91;4953669;28;20058;-57
2022/05/25 09:43:23;;;;;;;40.53;25.10;;;;;;;25.66;59.23;97137.25;4998500;28;20057;-64
2022/05/25 09:45:56;;;;;;;41.20;26.20;;;;;;;25.47;59.61;97141.25;5004954;28;20080;-59
2022/05/25 09:48:29;;;;;;;43.13;26.20;;;;;;;25.80;59.10;97153.72;5019204;28;20081;-57
2022/05/25 09:51:33;;;;;;;41.65;26.23;;;;;;;25.61;60.57;97163.41;5004178;28;20308;-58
2022/05/25 09:54:19;;;;;;;35.92;24.95;;;;;;;25.81;59.42;97167.44;5004530;28;20599;-64
2022/05/25 09:56:50;;;;;;;41.78;26.45;;;;;;;26.27;58.17;97160.63;5004396;28;20057;-58
2022/05/25 09:59:25;;;;;;;43.72;27.75;;;;;;;26.86;56.04;97145.03;5004659;28;20052;-63
2022/05/25 10:01:52;;;;;;;37.50;26.05;;;;;;;26.73;55.15;97104.59;5004864;28;20081;-61
2022/05/25 10:04:52;;;;;;;41.92;27.88;;;;;;;26.84;55.47;97158.94;5004095;28;20508;-64
2022/05/25 10:07:36;;;;;;;45.72;29.33;;;;;;;26.84;55.20;97130.50;5005194;28;20073;-63
2022/05/25 10:10:10;;;;;;;44.70;27.63;;;;;;;27.11;55.55;97156.03;5024015;28;20083;-59
2022/05/25 10:12:39;;;;;;;40.97;26.85;;;;;;;27.31;54.51;97159.19;5023859;28;20046;-63
2022/05/25 10:15:28;;;;;;;40.78;27.55;;;;;;;27.26;54.32;97157.00;5023018;28;20208;-58
2022/05/25 10:17:55;;;;;;;42.50;28.15;;;;;;;27.45;54.41;97155.69;5023941;28;20061;-59
2022/05/25 10:20:28;;;;;;;45.53;28.83;;;;;;;27.79;53.71;97148.75;5023614;28;20059;-63
2022/05/25 10:23:07;;;;;;;49.40;28.60;;;;;;;28.01;52.60;97141.50;5024163;28;20081;-63
2022/05/25 10:25:41;;;;;;;42.78;28.05;;;;;;;27.99;52.97;97158.31;5026336;28;20080;-64
2022/05/25 10:28:39;;;;;;;41.65;28.02;;;;;;;26.64;53.29;97002.28;5025410;28;20380;-63
2022/05/25 10:37:08;;;;;;;40.17;26.35;;;;;;;27.96;52.01;97142.16;5016250;28;20702;-59
2022/05/25 10:39:46;;;;;;;41.03;28.02;;;;;;;28.04;52.64;97140.53;5021953;28;20055;-59
2022/05/25 10:42:45;;;;;;;34.55;25.40;;;;;;;28.09;51.70;97145.56;5021996;28;20059;-60
2022/05/25 10:45:32;;;;;;;42.08;26.60;;;;;;;27.66;52.13;97146.09;5024050;28;20065;-58
2022/05/25 10:48:07;;;;;;;40.25;26.80;;;;;;;27.73;52.91;97154.28;5038694;28;20072;-64
2022/05/25 10:50:42;;;;;;;38.40;25.85;;;;;;;26.97;53.74;97153.84;5023020;28;20569;-58
2022/05/25 10:56:51;;;;;;;36.25;24.33;;;;;;;26.78;56.67;97135.22;5022920;28;20053;-64
2022/05/25 10:59:48;;;;;;;36.58;24.33;;;;;;;25.52;60.94;97143.50;5023237;28;20626;-58
2022/05/25 11:02:49;;;;;;;35.17;25.00;;;;;;;25.68;60.82;97134.72;5023014;28;20057;-65
2022/05/25 11:05:28;;;;;;;40.13;24.90;;;;;;;24.43;63.78;97137.09;5038128;28;20065;-59
2022/05/25 11:08:10;;;;;;;41.15;26.08;;;;;;;24.12;66.84;97138.22;5023169;28;20041;-59
2022/05/25 11:10:52;;;;;;;46.33;28.08;;;;;;;25.11;64.25;97136.97;5023301;28;20064;-60
2022/05/25 11:13:28;;;;;;;42.05;26.63;;;;;;;25.50;61.14;97134.69;5022774;28;20049;-58
2022/05/25 11:15:54;;;;;;;35.72;24.73;;;;;;;25.73;61.73;97128.44;5022285;28;20065;-64
2022/05/25 11:18:36;;;;;;;38.00;24.88;;;;;;;26.33;59.40;97124.66;5022911;28;20050;-59
2022/05/25 11:21:18;;;;;;;38.95;24.75;;;;;;;26.54;58.34;97129.38;5022954;28;20575;-59
2022/05/25 11:23:58;;;;;;;36.05;23.92;;;;;;;26.20;57.05;97074.94;5022379;28;20073;-64
2022/05/25 11:26:49;;;;;;;37.05;22.40;;;;;;;26.83;56.83;97128.91;5036768;28;20046;-60
2022/05/25 11:29:41;;;;;;;31.13;22.60;;;;;;;26.25;58.87;97122.59;5014885;28;20081;-64
2022/05/25 11:32:25;;;;;;;41.83;25.58;;;;;;;25.86;60.70;97126.28;5019485;28;20057;-60
2022/05/25 11:35:04;;;;;;;34.15;22.15;;;;;;;24.97;62.92;97123.34;5023070;28;20071;-60
2022/05/25 11:37:34;;;;;;;39.83;25.08;;;;;;;24.82;64.05;97113.81;5037813;28;20057;-59
2022/05/25 11:40:05;;;;;;;41.53;25.42;;;;;;;25.41;61.94;97120.44;5023078;28;20492;-62
2022/05/25 11:42:47;;;;;;;38.92;25.48;;;;;;;26.45;58.75;97114.38;5022902;28;20053;-60
2022/05/25 11:45:32;;;;;;;32.60;23.55;;;;;;;26.86;56.24;97104.44;5022589;28;20053;-59
2022/05/25 11:48:11;;;;;;;40.20;26.05;;;;;;;27.19;56.78;97099.63;5021617;28;20049;-64
2022/05/25 11:50:56;;;;;;;37.78;25.85;;;;;;;27.47;55.25;97103.97;5054528;28;20061;-63
2022/05/25 11:53:55;;;;;;;38.40;24.08;;;;;;;25.01;62.91;97114.69;5022046;28;20049;-62
2022/05/25 11:56:37;;;;;;;40.15;25.63;;;;;;;25.55;62.07;97097.16;5010568;28;20059;-59
2022/05/25 11:59:10;;;;;;;34.65;24.13;;;;;;;25.41;60.79;97092.06;5022418;28;20444;-60
2022/05/25 12:02:08;;;;;;;35.28;24.25;;;;;;;25.65;62.07;97091.06;5022610;28;21208;-63
2022/05/25 12:04:53;;;;;;;38.30;24.17;;;;;;;26.65;58.72;97092.00;5022177;28;20068;-58
2022/05/25 12:07:52;;;;;;;37.65;25.63;;;;;;;27.30;55.44;97089.31;5006017;28;20046;-62